Time;durP1;ratioP1;P1;durP2;ratioP2;P2;SDS_P1;SDS_P2;PMS_P1;PMS_P2;Temp;Humidity;BMP_temperature;BMP_pressure;BME280_temperature;BME280_humidity;BME280_pressure;Samples;Min_cycle;Max_cycle;Signal;HPM_P1;HPM_P2
2023/07/29 00:01:42;;;;;;;4.40;1.20;;;17.00;99.90;;;;;;5029126;28;20811;-63
2023/07/29 00:04:09;;;;;;;2.60;1.20;;;17.10;99.90;;;;;;5029195;28;20187;-63
2023/07/29 00:06:35;;;;;;;3.00;1.30;;;17.20;99.90;;;;;;5029078;28;20191;-63
2023/07/29 00:09:01;;;;;;;1.60;1.50;;;17.20;99.90;;;;;;5029061;28;20457;-63
2023/07/29 00:11:26;;;;;;;3.17;2.03;;;17.10;99.90;;;;;;5029145;28;20877;-63
2023/07/29 00:13:52;;;;;;;1.30;1.20;;;17.20;99.90;;;;;;5029518;28;20657;-63
2023/07/29 00:16:21;;;;;;;1.60;1.27;;;17.20;99.90;;;;;;5029445;28;20183;-63
2023/07/29 00:18:48;;;;;;;1.83;1.00;;;17.20;99.90;;;;;;5029453;28;20826;-63
2023/07/29 00:21:13;;;;;;;4.23;1.50;;;17.20;99.90;;;;;;5029754;28;20455;-63
2023/07/29 00:23:39;;;;;;;1.63;1.30;;;17.20;99.90;;;;;;5029638;28;20818;-63
2023/07/29 00:26:05;;;;;;;1.37;1.10;;;17.30;99.90;;;;;;5029361;28;20266;-63
2023/07/29 00:28:30;;;;;;;3.43;1.20;;;17.40;99.90;;;;;;5029347;28;20196;-63
2023/07/29 00:30:56;;;;;;;3.97;1.20;;;17.30;99.90;;;;;;5028924;28;20208;-63
2023/07/29 00:33:22;;;;;;;5.00;1.40;;;17.30;99.90;;;;;;5028858;28;20185;-63
2023/07/29 00:35:47;;;;;;;1.50;1.10;;;17.40;99.90;;;;;;5028700;28;20225;-63
2023/07/29 00:38:13;;;;;;;2.60;1.50;;;17.50;99.90;;;;;;5028651;28;20192;-63
2023/07/29 00:40:38;;;;;;;2.90;1.50;;;17.50;99.90;;;;;;5028537;28;20634;-64
2023/07/29 00:43:04;;;;;;;2.37;1.13;;;17.60;99.90;;;;;;5028484;28;20607;-64
2023/07/29 00:45:31;;;;;;;3.40;1.60;;;17.60;99.90;;;;;;5028718;28;20191;-63
2023/07/29 00:47:57;;;;;;;2.77;1.40;;;17.60;99.90;;;;;;5028419;28;20177;-63
2023/07/29 00:50:23;;;;;;;4.40;1.30;;;17.60;99.90;;;;;;5028796;28;21163;-65
2023/07/29 00:52:49;;;;;;;2.43;1.40;;;17.70;99.90;;;;;;5028345;28;20438;-63
2023/07/29 00:55:15;;;;;;;3.23;1.30;;;17.70;99.90;;;;;;5028205;28;20830;-63
2023/07/29 00:57:42;;;;;;;3.30;2.10;;;17.70;99.90;;;;;;5028412;28;20546;-63
2023/07/29 01:00:08;;;;;;;5.13;1.83;;;17.70;99.90;;;;;;5028335;28;20443;-63
2023/07/29 01:02:35;;;;;;;1.63;1.53;;;17.70;99.90;;;;;;5028525;28;20427;-63
2023/07/29 01:05:01;;;;;;;2.90;1.80;;;17.70;99.90;;;;;;5028499;28;20429;-64
2023/07/29 01:08:00;;;;;;;3.17;1.50;;;17.80;99.90;;;;;;5028360;28;20825;-63
2023/07/29 01:11:02;;;;;;;1.77;1.40;;;17.70;99.90;;;;;;5028251;28;20444;-64
2023/07/29 01:13:47;;;;;;;1.97;1.70;;;17.70;99.90;;;;;;5028331;28;20890;-63
2023/07/29 01:16:30;;;;;;;4.17;1.60;;;17.80;99.90;;;;;;5028313;28;20516;-63
2023/07/29 01:18:58;;;;;;;3.73;1.57;;;17.90;99.90;;;;;;5028252;28;20413;-63
2023/07/29 01:21:26;;;;;;;5.73;1.53;;;17.80;99.90;;;;;;5028057;28;20447;-63
2023/07/29 01:23:53;;;;;;;1.47;1.37;;;17.90;99.90;;;;;;5028144;28;20816;-63
2023/07/29 01:26:19;;;;;;;2.53;1.57;;;18.00;99.90;;;;;;5027946;28;20937;-63
2023/07/29 01:28:44;;;;;;;1.70;1.60;;;18.00;99.90;;;;;;5028116;28;20428;-63
2023/07/29 01:31:20;;;;;;;2.03;1.67;;;18.00;99.90;;;;;;5027947;28;20224;-64
2023/07/29 01:33:54;;;;;;;2.00;1.57;;;18.10;99.90;;;;;;5028059;28;20651;-63
2023/07/29 01:36:23;;;;;;;3.90;2.10;;;18.10;99.90;;;;;;5028018;28;20415;-64
2023/07/29 01:38:50;;;;;;;1.40;1.13;;;18.10;99.90;;;;;;5028393;28;20945;-64
2023/07/29 01:41:17;;;;;;;10.03;2.20;;;18.00;99.90;;;;;;5028107;28;20458;-63
2023/07/29 01:43:43;;;;;;;2.33;1.40;;;18.00;99.90;;;;;;5030650;28;20841;-63
2023/07/29 01:46:13;;;;;;;2.00;1.77;;;18.00;99.90;;;;;;5031751;28;20497;-63
2023/07/29 01:48:39;;;;;;;1.93;1.83;;;18.00;99.90;;;;;;5032070;28;20431;-63
2023/07/29 01:51:06;;;;;;;1.67;1.57;;;18.10;99.90;;;;;;5031880;28;20983;-63
2023/07/29 01:53:32;;;;;;;1.97;1.70;;;18.20;99.90;;;;;;5031481;28;20416;-63
2023/07/29 01:55:57;;;;;;;1.40;1.30;;;18.20;99.90;;;;;;5031694;28;20428;-63
2023/07/29 01:58:23;;;;;;;4.27;1.93;;;18.20;99.90;;;;;;5031887;28;20423;-64
2023/07/29 02:00:49;;;;;;;2.10;1.90;;;18.30;99.90;;;;;;5031759;28;20208;-63
2023/07/29 02:03:15;;;;;;;1.60;1.50;;;18.30;99.90;;;;;;5032089;28;20784;-64
2023/07/29 02:05:43;;;;;;;3.07;1.90;;;18.30;99.90;;;;;;5032080;28;20655;-63
2023/07/29 02:08:09;;;;;;;3.80;1.70;;;18.30;99.90;;;;;;5032279;28;20621;-64
2023/07/29 02:10:35;;;;;;;3.50;2.07;;;18.30;99.90;;;;;;5032188;28;20442;-63
2023/07/29 02:13:00;;;;;;;2.83;1.60;;;18.30;99.90;;;;;;5031946;28;20471;-63
2023/07/29 02:15:26;;;;;;;2.17;1.33;;;18.30;99.90;;;;;;5031752;28;20556;-64
2023/07/29 02:17:52;;;;;;;1.90;1.77;;;18.30;99.90;;;;;;5031468;28;20187;-63
2023/07/29 02:20:17;;;;;;;1.90;1.70;;;18.30;99.90;;;;;;5031418;28;20194;-63
2023/07/29 02:22:43;;;;;;;1.60;1.50;;;18.20;99.90;;;;;;5031235;28;20180;-64
2023/07/29 02:25:09;;;;;;;2.50;1.87;;;18.20;99.90;;;;;;5031214;28;20192;-63
2023/07/29 02:27:35;;;;;;;1.97;1.40;;;18.30;99.90;;;;;;5031416;28;20208;-63
2023/07/29 02:30:01;;;;;;;2.50;1.60;;;18.30;99.90;;;;;;5030952;28;20456;-63
2023/07/29 02:32:27;;;;;;;1.70;1.60;;;18.30;99.90;;;;;;5030942;28;20198;-63
2023/07/29 02:34:52;;;;;;;2.60;1.57;;;18.30;99.90;;;;;;5031229;28;20243;-64
2023/07/29 02:37:18;;;;;;;2.30;2.00;;;18.20;99.90;;;;;;5030932;28;20588;-63
2023/07/29 02:39:44;;;;;;;2.07;1.87;;;18.10;99.90;;;;;;5030640;28;20190;-63
2023/07/29 02:42:10;;;;;;;4.20;1.93;;;18.10;99.90;;;;;;5030825;28;20708;-64
2023/07/29 02:44:35;;;;;;;3.13;1.70;;;18.00;99.90;;;;;;5030789;28;20542;-64
2023/07/29 02:47:01;;;;;;;1.70;1.60;;;17.90;99.90;;;;;;5030744;28;20211;-63
2023/07/29 02:49:27;;;;;;;5.00;1.73;;;18.00;99.90;;;;;;5030491;28;20703;-63
2023/07/29 02:51:52;;;;;;;1.87;1.40;;;18.00;99.90;;;;;;5030493;28;20688;-63
2023/07/29 02:54:18;;;;;;;1.77;1.67;;;18.00;99.90;;;;;;5029349;28;20215;-64
2023/07/29 02:56:43;;;;;;;1.87;1.67;;;18.10;99.90;;;;;;5030617;28;20653;-63
2023/07/29 02:59:09;;;;;;;4.03;1.57;;;18.20;99.90;;;;;;5030371;28;20191;-63
2023/07/29 03:01:34;;;;;;;4.40;1.73;;;18.20;99.90;;;;;;5030379;28;20625;-64
2023/07/29 03:04:00;;;;;;;4.13;1.70;;;18.30;99.90;;;;;;5030290;28;20194;-63
2023/07/29 03:06:26;;;;;;;6.37;1.67;;;18.30;99.90;;;;;;5030453;28;20272;-64
2023/07/29 03:08:52;;;;;;;2.53;1.90;;;18.20;99.90;;;;;;5030321;28;20831;-64
2023/07/29 03:11:17;;;;;;;2.30;1.70;;;18.30;99.90;;;;;;5030167;28;20683;-63
2023/07/29 03:13:43;;;;;;;2.73;2.00;;;18.30;99.90;;;;;;5030004;28;20294;-64
2023/07/29 03:16:16;;;;;;;3.43;1.50;;;18.20;99.90;;;;;;5030086;28;20188;-64
2023/07/29 03:18:43;;;;;;;2.20;1.40;;;18.20;99.90;;;;;;5030035;28;20201;-64
2023/07/29 03:21:09;;;;;;;3.07;1.97;;;18.20;99.90;;;;;;5029945;28;21268;-64
2023/07/29 03:23:35;;;;;;;2.77;1.43;;;18.20;99.90;;;;;;5030063;28;20419;-64
2023/07/29 03:26:04;;;;;;;2.33;1.53;;;18.30;99.90;;;;;;5029932;28;20420;-64
2023/07/29 03:28:32;;;;;;;3.17;1.90;;;18.40;99.90;;;;;;5029686;28;20486;-63
2023/07/29 03:30:58;;;;;;;2.77;1.40;;;18.40;99.90;;;;;;5029735;28;20435;-64
2023/07/29 03:33:24;;;;;;;2.00;1.80;;;18.40;99.90;;;;;;5029772;28;21618;-63
2023/07/29 03:35:50;;;;;;;1.80;1.70;;;18.40;99.90;;;;;;5029678;28;20253;-64
2023/07/29 03:38:16;;;;;;;5.00;1.93;;;18.40;99.90;;;;;;5029688;28;20426;-64
2023/07/29 03:40:42;;;;;;;2.20;1.57;;;18.50;99.90;;;;;;5029594;28;20202;-64
2023/07/29 03:43:07;;;;;;;3.23;2.10;;;18.40;99.90;;;;;;5029605;28;20200;-64
2023/07/29 03:45:34;;;;;;;5.47;1.97;;;18.50;99.90;;;;;;5030013;28;20938;-63
2023/07/29 03:48:00;;;;;;;2.20;2.00;;;18.50;99.90;;;;;;5029739;28;20192;-64
2023/07/29 03:50:26;;;;;;;4.37;1.60;;;18.60;99.90;;;;;;5029364;28;20469;-63
2023/07/29 03:52:52;;;;;;;2.43;2.10;;;18.50;99.90;;;;;;5029451;28;20275;-64
2023/07/29 03:55:18;;;;;;;2.70;1.60;;;18.50;99.90;;;;;;5029306;28;20560;-64
2023/07/29 03:57:44;;;;;;;1.97;1.77;;;18.50;99.90;;;;;;5029827;28;20219;-63
2023/07/29 04:00:10;;;;;;;1.80;1.70;;;18.40;99.90;;;;;;5029196;28;20438;-63
2023/07/29 04:02:38;;;;;;;2.23;2.03;;;18.50;99.90;;;;;;5029276;28;20235;-63
2023/07/29 04:05:08;;;;;;;3.30;2.00;;;18.50;99.90;;;;;;5028881;28;20427;-63
2023/07/29 04:07:34;;;;;;;2.07;1.87;;;18.50;99.90;;;;;;5029141;28;20429;-63
2023/07/29 04:10:00;;;;;;;3.50;1.83;;;18.50;99.90;;;;;;5028987;28;20436;-64
2023/07/29 04:12:26;;;;;;;2.30;2.07;;;18.50;99.90;;;;;;5029385;28;20798;-65
2023/07/29 04:14:52;;;;;;;2.33;2.07;;;18.60;99.90;;;;;;5028999;28;20472;-63
2023/07/29 04:17:17;;;;;;;5.53;2.13;;;18.60;99.90;;;;;;5029050;28;20179;-63
2023/07/29 04:19:43;;;;;;;3.03;1.70;;;18.60;99.90;;;;;;5029016;28;20190;-63
2023/07/29 04:22:08;;;;;;;2.43;2.23;;;18.70;99.90;;;;;;5028955;28;20267;-64
2023/07/29 04:24:34;;;;;;;1.93;1.73;;;18.80;99.90;;;;;;5029355;28;20223;-63
2023/07/29 04:26:59;;;;;;;5.53;1.80;;;18.70;99.90;;;;;;5028949;28;20224;-63
2023/07/29 04:29:25;;;;;;;2.30;2.00;;;18.70;99.90;;;;;;5028911;28;20325;-64
2023/07/29 04:31:51;;;;;;;3.20;2.10;;;18.70;99.90;;;;;;5028828;28;20564;-64
2023/07/29 04:34:19;;;;;;;2.07;1.87;;;18.80;99.90;;;;;;5028687;28;20224;-63
2023/07/29 04:36:46;;;;;;;1.93;1.70;;;18.80;99.90;;;;;;5028809;28;20874;-63
2023/07/29 04:39:12;;;;;;;3.57;1.83;;;18.90;99.90;;;;;;5028542;28;20949;-63
2023/07/29 04:41:37;;;;;;;2.20;2.00;;;18.90;99.90;;;;;;5028667;28;21138;-63
2023/07/29 04:44:03;;;;;;;1.50;1.40;;;18.90;99.90;;;;;;5028963;28;20187;-63
2023/07/29 04:46:29;;;;;;;2.10;1.77;;;19.00;99.90;;;;;;5029217;28;20193;-63
2023/07/29 04:48:54;;;;;;;6.70;1.90;;;19.00;99.90;;;;;;5029129;28;20441;-63
2023/07/29 04:51:20;;;;;;;2.43;1.67;;;19.00;99.90;;;;;;5029242;28;20751;-63
2023/07/29 04:53:46;;;;;;;2.97;1.80;;;19.10;99.90;;;;;;5029213;28;20749;-63
2023/07/29 04:56:12;;;;;;;2.40;1.87;;;19.20;99.90;;;;;;5029196;28;20450;-63
2023/07/29 04:58:37;;;;;;;1.67;1.57;;;19.30;99.90;;;;;;5029366;28;20177;-63
2023/07/29 05:01:04;;;;;;;1.93;1.50;;;19.30;99.90;;;;;;5027495;28;20257;-63
2023/07/29 05:03:30;;;;;;;2.03;1.37;;;19.50;99.90;;;;;;5028657;28;20599;-63
2023/07/29 05:05:57;;;;;;;2.33;1.60;;;19.50;99.90;;;;;;5028301;28;20548;-63
2023/07/29 05:08:24;;;;;;;5.23;1.90;;;19.50;99.90;;;;;;5028305;28;20429;-63
2023/07/29 05:10:50;;;;;;;2.20;2.00;;;19.60;99.90;;;;;;5028230;28;20861;-63
2023/07/29 05:13:16;;;;;;;2.53;1.80;;;19.60;99.90;;;;;;5028557;28;20554;-64
2023/07/29 05:15:41;;;;;;;1.90;1.63;;;19.60;99.90;;;;;;5028317;28;20513;-64
2023/07/29 05:18:07;;;;;;;1.87;1.67;;;19.60;99.90;;;;;;5030117;28;20425;-64
2023/07/29 05:20:33;;;;;;;3.97;1.80;;;19.60;99.90;;;;;;5032350;28;20290;-64
2023/07/29 05:22:58;;;;;;;2.10;1.73;;;19.40;99.90;;;;;;5032369;28;20186;-64
2023/07/29 05:25:24;;;;;;;6.80;1.67;;;19.00;99.90;;;;;;5032430;28;20183;-63
2023/07/29 05:27:49;;;;;;;24.40;4.77;;;18.70;99.90;;;;;;5032287;28;20221;-63
2023/07/29 05:30:15;;;;;;;3.43;1.87;;;18.40;99.90;;;;;;5032146;28;20230;-63
2023/07/29 05:32:41;;;;;;;4.57;2.20;;;18.10;99.90;;;;;;5032091;28;20187;-63
2023/07/29 05:35:07;;;;;;;2.47;2.27;;;18.00;99.90;;;;;;5031929;28;20212;-64
2023/07/29 05:37:32;;;;;;;2.50;2.30;;;18.00;99.90;;;;;;5031931;28;20184;-63
2023/07/29 05:39:58;;;;;;;2.70;2.00;;;17.90;99.90;;;;;;5031766;28;20450;-62
2023/07/29 05:42:24;;;;;;;2.93;1.90;;;17.90;99.90;;;;;;5031719;28;20272;-64
2023/07/29 05:44:49;;;;;;;2.63;1.80;;;17.80;99.90;;;;;;5031520;28;20447;-63
2023/07/29 05:47:15;;;;;;;4.70;2.40;;;18.00;99.90;;;;;;5031769;28;20191;-64
2023/07/29 05:49:41;;;;;;;4.33;2.00;;;17.90;99.90;;;;;;5031536;28;20259;-64
2023/07/29 05:52:07;;;;;;;3.93;2.23;;;17.70;99.90;;;;;;5030352;28;20719;-63
2023/07/29 05:54:32;;;;;;;3.67;2.13;;;17.60;99.90;;;;;;5031549;28;20239;-64
2023/07/29 05:56:58;;;;;;;4.03;2.13;;;17.60;99.90;;;;;;5031552;28;20419;-63
2023/07/29 05:59:24;;;;;;;3.23;2.10;;;17.70;99.90;;;;;;5031457;28;20207;-64
2023/07/29 06:01:49;;;;;;;1.70;1.50;;;17.70;99.90;;;;;;5029855;28;20209;-63
2023/07/29 06:04:15;;;;;;;2.43;1.57;;;17.90;99.90;;;;;;5031752;28;20198;-63
2023/07/29 06:06:41;;;;;;;1.33;1.10;;;18.10;99.90;;;;;;5031294;28;20663;-63
2023/07/29 06:09:06;;;;;;;2.23;1.73;;;18.40;99.90;;;;;;5031454;28;20679;-64
2023/07/29 06:11:32;;;;;;;1.20;1.10;;;18.50;99.90;;;;;;5031267;28;20567;-63
2023/07/29 06:13:57;;;;;;;3.40;1.43;;;18.50;99.90;;;;;;5031132;28;20211;-63
2023/07/29 06:16:23;;;;;;;2.07;1.87;;;18.60;99.90;;;;;;5031616;28;20213;-63
2023/07/29 06:18:49;;;;;;;3.03;2.13;;;18.80;99.90;;;;;;5031084;28;20180;-63
2023/07/29 06:21:16;;;;;;;1.53;1.43;;;19.00;99.90;;;;;;5031062;28;20314;-64
2023/07/29 06:23:43;;;;;;;1.90;1.80;;;19.20;99.90;;;;;;5030923;28;20274;-64
2023/07/29 06:26:09;;;;;;;2.10;1.90;;;19.20;99.90;;;;;;5031296;28;20961;-63
2023/07/29 06:28:34;;;;;;;1.97;1.87;;;19.40;99.90;;;;;;5030666;28;20510;-63
2023/07/29 06:31:00;;;;;;;3.00;2.20;;;19.40;99.90;;;;;;5030626;28;20286;-63
2023/07/29 06:33:26;;;;;;;2.40;2.20;;;19.50;99.90;;;;;;5030857;28;20486;-64
2023/07/29 06:35:51;;;;;;;3.07;2.73;;;19.50;99.90;;;;;;5030243;28;20590;-64
2023/07/29 06:38:21;;;;;;;2.53;2.27;;;19.50;99.90;;;;;;5030702;28;20189;-63
2023/07/29 06:40:50;;;;;;;6.53;2.43;;;19.50;99.90;;;;;;5030516;28;20672;-63
2023/07/29 06:43:15;;;;;;;2.07;1.97;;;19.50;99.90;;;;;;5030639;28;20423;-63
2023/07/29 06:45:41;;;;;;;2.80;2.60;;;19.60;99.90;;;;;;5030572;28;20472;-64
2023/07/29 06:48:07;;;;;;;2.60;1.97;;;19.70;99.90;;;;;;5030674;28;20422;-64
2023/07/29 06:50:32;;;;;;;5.53;2.50;;;19.80;99.90;;;;;;5030368;28;20224;-64
2023/07/29 06:52:58;;;;;;;3.03;2.70;;;19.90;99.90;;;;;;5029078;28;20602;-64
2023/07/29 06:55:23;;;;;;;3.07;2.70;;;19.90;99.90;;;;;;5030375;28;20220;-63
2023/07/29 06:57:49;;;;;;;4.57;2.50;;;19.90;99.90;;;;;;5030390;28;20652;-64
2023/07/29 07:00:15;;;;;;;2.63;2.43;;;20.00;99.90;;;;;;5030298;28;20721;-64
2023/07/29 07:02:41;;;;;;;3.00;2.50;;;20.10;99.90;;;;;;5030362;28;20187;-63
2023/07/29 07:05:07;;;;;;;3.20;2.60;;;20.10;99.90;;;;;;5030345;28;20720;-64
2023/07/29 07:07:32;;;;;;;2.80;2.60;;;20.10;99.90;;;;;;5030383;28;20910;-64
2023/07/29 07:09:58;;;;;;;4.10;2.70;;;20.10;99.90;;;;;;5030436;28;20594;-64
2023/07/29 07:12:24;;;;;;;5.93;3.27;;;20.00;99.90;;;;;;5028783;28;20197;-64
2023/07/29 07:14:49;;;;;;;6.60;3.27;;;20.00;99.90;;;;;;5029908;28;20258;-64
2023/07/29 07:17:15;;;;;;;6.43;3.53;;;19.90;99.90;;;;;;5030046;28;20184;-64
2023/07/29 07:19:40;;;;;;;9.40;3.00;;;19.70;99.90;;;;;;5030127;28;20270;-64
2023/07/29 07:22:06;;;;;;;2.77;2.30;;;19.60;99.90;;;;;;5030072;28;20184;-63
2023/07/29 07:24:32;;;;;;;2.63;1.90;;;19.30;99.90;;;;;;5029867;28;20180;-64
2023/07/29 07:26:58;;;;;;;2.90;2.50;;;19.00;99.90;;;;;;5029885;28;20181;-63
2023/07/29 07:29:24;;;;;;;5.90;2.40;;;18.90;99.90;;;;;;5029966;28;20692;-63
2023/07/29 07:31:53;;;;;;;3.87;2.53;;;18.80;99.90;;;;;;5029771;28;20213;-64
2023/07/29 07:34:20;;;;;;;2.83;2.60;;;18.70;99.90;;;;;;5029659;28;20469;-63
2023/07/29 07:36:45;;;;;;;4.70;2.70;;;18.70;99.90;;;;;;5029731;28;20417;-63
2023/07/29 07:39:11;;;;;;;2.50;2.20;;;18.80;99.90;;;;;;5029631;28;20451;-63
2023/07/29 07:41:37;;;;;;;4.57;2.43;;;18.80;99.90;;;;;;5027502;28;20448;-64
2023/07/29 07:44:03;;;;;;;4.80;2.43;;;18.90;99.90;;;;;;5027988;28;20501;-63
2023/07/29 07:46:29;;;;;;;2.20;2.00;;;18.90;99.90;;;;;;5028001;28;20195;-63
2023/07/29 07:48:55;;;;;;;2.33;2.10;;;18.90;99.90;;;;;;5027745;28;20238;-63
2023/07/29 07:51:20;;;;;;;12.90;2.60;;;18.90;99.90;;;;;;5027822;28;20435;-62
2023/07/29 07:53:46;;;;;;;2.37;2.17;;;19.00;99.90;;;;;;5027822;28;20172;-63
2023/07/29 07:56:12;;;;;;;4.00;2.40;;;19.00;99.90;;;;;;5027723;28;20184;-63
2023/07/29 07:58:38;;;;;;;2.60;2.40;;;19.10;99.90;;;;;;5027749;28;20659;-63
2023/07/29 08:01:06;;;;;;;4.87;2.37;;;19.00;99.90;;;;;;5027478;28;20221;-63
2023/07/29 08:03:31;;;;;;;2.87;2.03;;;19.00;99.90;;;;;;5027620;28;20424;-63
2023/07/29 08:05:57;;;;;;;3.00;2.70;;;18.90;99.90;;;;;;5027518;28;20988;-63
2023/07/29 08:08:23;;;;;;;7.83;2.30;;;19.00;99.90;;;;;;5027711;28;20188;-63
2023/07/29 08:10:49;;;;;;;1.90;1.70;;;19.00;99.90;;;;;;5027490;28;20948;-63
2023/07/29 08:13:14;;;;;;;3.30;2.03;;;19.00;99.90;;;;;;5027603;28;20645;-62
2023/07/29 08:15:41;;;;;;;3.43;1.80;;;19.10;99.90;;;;;;5027455;28;20215;-63
2023/07/29 08:18:07;;;;;;;5.23;1.67;;;19.10;99.90;;;;;;5027371;28;20195;-63
2023/07/29 08:20:32;;;;;;;2.20;1.90;;;19.20;99.90;;;;;;5027592;28;20438;-63
2023/07/29 08:22:58;;;;;;;3.00;1.57;;;19.20;99.90;;;;;;5027487;28;20788;-63
2023/07/29 08:25:24;;;;;;;2.60;1.77;;;19.30;99.90;;;;;;5027425;28;20198;-63
2023/07/29 08:27:49;;;;;;;2.57;1.93;;;19.30;99.90;;;;;;5027298;28;20192;-63
2023/07/29 08:30:16;;;;;;;3.10;1.63;;;19.40;99.90;;;;;;5027109;28;20217;-63
2023/07/29 08:32:41;;;;;;;3.17;1.93;;;19.40;99.90;;;;;;5027368;28;20188;-63
2023/07/29 08:35:07;;;;;;;1.37;1.27;;;19.40;99.90;;;;;;5027150;28;21025;-63
2023/07/29 08:37:33;;;;;;;1.50;1.40;;;19.40;99.90;;;;;;5027159;28;20187;-63
2023/07/29 08:39:59;;;;;;;3.63;1.50;;;19.40;99.90;;;;;;5026925;28;20208;-64
2023/07/29 08:42:31;;;;;;;3.43;1.87;;;19.40;99.90;;;;;;5027102;28;20191;-63
2023/07/29 08:44:59;;;;;;;2.07;1.57;;;19.50;99.90;;;;;;5025735;28;20192;-63
2023/07/29 08:47:25;;;;;;;4.50;2.47;;;19.50;99.90;;;;;;5027202;28;20424;-63
2023/07/29 08:49:52;;;;;;;2.23;2.03;;;19.50;99.90;;;;;;5026900;28;20977;-63
2023/07/29 08:52:18;;;;;;;4.93;2.00;;;19.60;99.90;;;;;;5026150;28;20181;-63
2023/07/29 08:54:44;;;;;;;1.50;1.40;;;19.60;99.90;;;;;;5027007;28;20456;-63
2023/07/29 08:57:10;;;;;;;2.30;1.90;;;19.60;99.90;;;;;;5026869;28;20415;-63
2023/07/29 08:59:37;;;;;;;2.17;1.97;;;19.60;99.90;;;;;;5026813;28;20184;-63
2023/07/29 09:02:03;;;;;;;3.73;1.73;;;19.60;99.90;;;;;;5026739;28;21436;-64
2023/07/29 09:04:28;;;;;;;3.87;2.30;;;19.60;99.90;;;;;;5026882;28;20454;-63
2023/07/29 09:06:56;;;;;;;3.83;1.80;;;19.50;99.90;;;;;;5026925;28;20193;-64
2023/07/29 09:09:22;;;;;;;3.47;1.80;;;19.60;99.90;;;;;;5026843;28;20724;-64
2023/07/29 09:11:48;;;;;;;3.73;1.73;;;19.50;99.90;;;;;;5026678;28;20449;-63
2023/07/29 09:14:14;;;;;;;5.77;1.70;;;19.70;99.90;;;;;;5026575;28;20211;-63
2023/07/29 09:16:39;;;;;;;2.40;2.20;;;20.00;99.90;;;;;;5026953;28;20804;-64
2023/07/29 09:19:05;;;;;;;2.10;2.00;;;20.40;99.90;;;;;;5026858;28;20422;-64
2023/07/29 09:21:32;;;;;;;4.50;2.60;;;20.80;99.90;;;;;;5026660;28;21065;-64
2023/07/29 09:24:03;;;;;;;1.83;1.73;;;21.30;99.90;;;;;;5026954;28;20622;-64
2023/07/29 09:26:29;;;;;;;2.37;2.10;;;21.60;99.90;;;;;;5026622;28;20927;-64
2023/07/29 09:28:57;;;;;;;2.60;2.40;;;21.90;99.90;;;;;;5026490;28;20853;-63
2023/07/29 09:31:24;;;;;;;3.07;1.97;;;22.20;99.90;;;;;;5026822;28;20432;-63
2023/07/29 09:33:56;;;;;;;2.17;1.93;;;22.40;99.90;;;;;;5026574;28;20469;-63
2023/07/29 09:36:22;;;;;;;2.27;2.07;;;22.70;99.90;;;;;;5026428;28;21000;-63
2023/07/29 09:38:51;;;;;;;4.50;2.13;;;22.90;99.90;;;;;;5026531;28;20419;-63
2023/07/29 09:41:17;;;;;;;2.70;1.80;;;23.40;99.90;;;;;;5026583;28;20677;-63
2023/07/29 09:43:42;;;;;;;2.43;2.23;;;23.60;99.90;;;;;;5026938;28;20425;-63
2023/07/29 09:46:08;;;;;;;2.57;2.40;;;23.60;99.90;;;;;;5026882;28;20198;-63
2023/07/29 09:48:38;;;;;;;1.73;1.63;;;23.60;99.90;;;;;;5027009;28;20187;-63
2023/07/29 09:51:14;;;;;;;4.10;1.97;;;23.80;99.90;;;;;;5027299;28;20315;-63
2023/07/29 09:53:44;;;;;;;2.50;2.03;;;24.00;99.90;;;;;;5027097;28;20423;-63
2023/07/29 09:56:10;;;;;;;4.77;2.23;;;24.40;99.90;;;;;;5027251;28;20541;-63
2023/07/29 09:58:37;;;;;;;2.20;2.07;;;24.50;99.90;;;;;;5027066;28;20421;-63
2023/07/29 10:01:06;;;;;;;1.83;1.70;;;24.90;99.90;;;;;;5027100;28;20449;-64
2023/07/29 10:03:34;;;;;;;2.97;2.20;;;24.90;99.90;;;;;;5027837;28;20848;-65
2023/07/29 10:06:02;;;;;;;2.03;1.80;;;25.20;99.90;;;;;;5030762;28;20427;-69
2023/07/29 10:08:40;;;;;;;2.40;2.00;;;25.00;99.90;;;;;;5030653;28;20432;-71
2023/07/29 10:11:08;;;;;;;3.20;2.67;;;24.70;99.90;;;;;;5029007;28;20508;-69
2023/07/29 10:13:34;;;;;;;2.73;2.20;;;24.70;99.90;;;;;;5029916;28;20417;-69
2023/07/29 10:16:03;;;;;;;2.37;2.17;;;24.70;99.90;;;;;;5030052;28;20473;-69
2023/07/29 10:18:30;;;;;;;3.50;2.20;;;24.70;99.90;;;;;;5030056;28;20418;-70
2023/07/29 10:20:58;;;;;;;3.70;2.50;;;24.80;99.90;;;;;;5029757;28;20425;-69
2023/07/29 10:23:25;;;;;;;3.43;2.23;;;24.50;99.90;;;;;;5030130;28;20456;-70
2023/07/29 10:26:03;;;;;;;3.43;2.20;;;24.50;99.90;;;;;;5029584;28;20440;-70
2023/07/29 10:28:29;;;;;;;2.57;2.37;;;24.90;99.90;;;;;;5031031;28;20931;-72
2023/07/29 10:30:57;;;;;;;2.60;2.40;;;24.90;99.90;;;;;;5031114;28;20465;-70
2023/07/29 10:33:23;;;;;;;3.40;2.13;;;25.20;99.90;;;;;;5029470;28;20979;-70
2023/07/29 10:35:49;;;;;;;5.93;2.87;;;25.30;99.90;;;;;;5027834;28;20485;-70
2023/07/29 10:38:15;;;;;;;2.57;2.37;;;25.70;99.90;;;;;;5029461;28;20175;-71
2023/07/29 10:40:46;;;;;;;2.83;2.47;;;25.80;99.90;;;;;;5029224;28;20443;-70
2023/07/29 10:43:14;;;;;;;3.60;2.00;;;25.70;99.90;;;;;;5029487;28;20419;-70
2023/07/29 10:45:42;;;;;;;3.37;2.33;;;25.50;99.90;;;;;;5029206;28;20430;-70
2023/07/29 10:48:12;;;;;;;2.40;2.20;;;25.20;99.90;;;;;;5029169;28;20956;-70
2023/07/29 10:50:38;;;;;;;2.20;2.00;;;25.40;99.90;;;;;;5029004;28;20490;-70
2023/07/29 10:53:04;;;;;;;2.80;1.93;;;25.70;99.90;;;;;;5029081;28;20418;-71
2023/07/29 10:55:33;;;;;;;2.37;2.17;;;25.90;99.90;;;;;;5029051;28;20450;-70
2023/07/29 10:58:13;;;;;;;3.17;2.37;;;26.30;99.90;;;;;;5029212;28;20912;-71
2023/07/29 11:00:43;;;;;;;2.10;2.00;;;26.50;99.90;;;;;;5029210;28;20843;-70
2023/07/29 11:03:09;;;;;;;2.30;2.00;;;26.60;99.90;;;;;;5028748;28;20762;-70
2023/07/29 11:05:49;;;;;;;9.63;2.20;;;26.10;99.90;;;;;;5029053;28;20423;-70
2023/07/29 11:08:35;;;;;;;2.43;2.23;;;25.90;99.90;;;;;;5028978;28;20418;-70
2023/07/29 11:11:04;;;;;;;2.30;2.10;;;25.90;99.90;;;;;;5028556;28;20956;-71
2023/07/29 11:13:31;;;;;;;3.13;2.47;;;26.10;99.90;;;;;;5028784;28;20436;-71
2023/07/29 11:15:58;;;;;;;4.53;2.10;;;25.80;99.90;;;;;;5027707;28;20464;-71
2023/07/29 11:18:33;;;;;;;2.30;2.10;;;25.60;99.90;;;;;;5028599;28;21232;-70
2023/07/29 11:20:59;;;;;;;3.17;2.40;;;25.70;99.90;;;;;;5028738;28;20443;-70
2023/07/29 11:23:33;;;;;;;2.33;1.70;;;26.20;99.90;;;;;;5028932;28;20422;-70
2023/07/29 11:26:00;;;;;;;2.60;2.23;;;26.50;99.90;;;;;;5028937;28;20423;-70
2023/07/29 11:28:26;;;;;;;2.30;2.10;;;27.00;99.90;;;;;;5028808;28;20494;-70
2023/07/29 11:30:53;;;;;;;2.33;2.13;;;27.00;99.90;;;;;;5028981;28;20443;-70
2023/07/29 11:33:21;;;;;;;3.37;2.50;;;26.70;99.90;;;;;;5029001;28;20427;-70
2023/07/29 11:35:46;;;;;;;2.50;2.30;;;26.40;99.90;;;;;;5028770;28;20506;-71
2023/07/29 11:38:20;;;;;;;2.50;2.07;;;26.10;99.90;;;;;;5028767;28;20507;-70
2023/07/29 11:41:19;;;;;;;1.80;1.70;;;26.10;99.90;;;;;;5029109;28;20216;-70
2023/07/29 11:43:44;;;;;;;2.73;2.53;;;26.00;99.90;;;;;;5024929;28;21090;-70
2023/07/29 11:46:10;;;;;;;2.07;1.97;;;26.30;99.90;;;;;;5028836;28;20986;-71
2023/07/29 11:48:36;;;;;;;2.37;2.17;;;26.20;99.90;;;;;;5028909;28;20192;-71
2023/07/29 11:51:03;;;;;;;3.30;2.30;;;26.10;99.90;;;;;;5028738;28;20465;-71
2023/07/29 11:53:30;;;;;;;3.27;2.50;;;26.00;99.90;;;;;;5028348;28;20192;-71
2023/07/29 11:55:56;;;;;;;2.33;2.13;;;25.90;99.90;;;;;;5028121;28;20478;-71
2023/07/29 11:58:21;;;;;;;3.53;2.10;;;25.70;99.90;;;;;;5028135;28;20412;-71
2023/07/29 12:00:48;;;;;;;3.13;1.73;;;25.60;99.90;;;;;;5028059;28;20701;-71
2023/07/29 12:03:16;;;;;;;2.33;2.13;;;26.10;99.90;;;;;;5028117;28;20193;-71
2023/07/29 12:05:42;;;;;;;3.03;2.00;;;26.20;99.90;;;;;;5028425;28;20514;-71
2023/07/29 12:08:08;;;;;;;3.93;2.47;;;26.30;99.90;;;;;;5028928;28;20419;-71
2023/07/29 12:10:35;;;;;;;1.97;1.87;;;26.20;99.90;;;;;;5028357;28;20439;-71
2023/07/29 12:13:03;;;;;;;1.70;1.60;;;26.10;99.90;;;;;;5028175;28;20500;-71
2023/07/29 12:15:29;;;;;;;1.70;1.60;;;26.00;99.90;;;;;;5028311;28;20499;-71
2023/07/29 12:17:59;;;;;;;2.33;1.50;;;26.30;99.90;;;;;;5028321;28;20422;-71
2023/07/29 12:20:26;;;;;;;1.53;1.43;;;26.60;99.90;;;;;;5028176;28;20597;-71
2023/07/29 12:23:02;;;;;;;2.00;1.90;;;26.90;99.90;;;;;;5028307;28;20407;-71
2023/07/29 12:25:29;;;;;;;5.57;1.80;;;27.20;99.90;;;;;;5028617;28;20429;-71
2023/07/29 12:27:55;;;;;;;2.03;1.60;;;27.60;99.90;;;;;;5028292;28;20424;-71
2023/07/29 12:30:27;;;;;;;2.40;1.40;;;27.60;99.90;;;;;;5028289;28;20435;-71
2023/07/29 12:32:52;;;;;;;2.10;1.53;;;27.90;99.90;;;;;;5027792;28;20533;-71
2023/07/29 12:35:18;;;;;;;2.27;2.07;;;28.10;99.90;;;;;;5027736;28;20832;-71
2023/07/29 12:37:43;;;;;;;2.83;1.57;;;28.20;99.90;;;;;;5027955;28;20191;-71
2023/07/29 12:40:25;;;;;;;2.90;1.67;;;28.20;99.90;;;;;;5027799;28;20219;-71
2023/07/29 12:42:51;;;;;;;2.10;1.90;;;28.00;98.40;;;;;;5028219;28;20184;-72
2023/07/29 12:45:18;;;;;;;1.37;1.27;;;27.70;99.90;;;;;;5027757;28;20825;-71